Solms, Texas
Current Conditions -  °F | °C
As of 9:51 PM on Sunday 25 Jan 2015 (Local Time) from KBAZ Reporting Station
Clear Clear  
Wind Chill: 51°   Ceiling: Unl
Heat Index: 51°   Visibility: 9mi
Dew Point: 35°   Wind: 9mph
Humidity: 54%   Direction: 310°NW
Pressure: 30.18"   Gusts: NA
Location:  29.6944°N, 98.0725°W
Report Text: KBAZ 260351Z AUTO 31008KT 9SM CLR 11/02 A3018 RMK AO2 SLP218 T01060017
Loading
Personal Weather Stations






























Interactive Weather Map New forecast layout! Learn more

10-Day Weather Forecast

Advertisements
Track Severe Weather on mobile